sensor_id;sensor_type;location;lat;lon;timestamp;temperature;humidity
17489;DHT22;8861;52.644;4.734;2022-10-31T00:01:45;13.60;99.90
17489;DHT22;8861;52.644;4.734;2022-10-31T00:04:12;13.50;99.90
17489;DHT22;8861;52.644;4.734;2022-10-31T00:06:38;13.50;99.90
17489;DHT22;8861;52.644;4.734;2022-10-31T00:09:06;13.50;99.90
17489;DHT22;8861;52.644;4.734;2022-10-31T00:11:33;13.50;99.90
17489;DHT22;8861;52.644;4.734;2022-10-31T00:14:00;13.50;99.90
17489;DHT22;8861;52.644;4.734;2022-10-31T00:16:28;13.40;99.90
17489;DHT22;8861;52.644;4.734;2022-10-31T00:18:58;13.40;99.90
17489;DHT22;8861;52.644;4.734;2022-10-31T00:21:25;13.40;99.90
17489;DHT22;8861;52.644;4.734;2022-10-31T00:23:52;13.40;99.90
17489;DHT22;8861;52.644;4.734;2022-10-31T00:26:20;13.40;99.90
17489;DHT22;8861;52.644;4.734;2022-10-31T00:28:47;13.40;99.90
17489;DHT22;8861;52.644;4.734;2022-10-31T00:31:14;13.40;99.90
17489;DHT22;8861;52.644;4.734;2022-10-31T00:33:41;13.40;99.90
17489;DHT22;8861;52.644;4.734;2022-10-31T00:36:12;13.30;99.90
17489;DHT22;8861;52.644;4.734;2022-10-31T00:38:39;13.30;99.90
17489;DHT22;8861;52.644;4.734;2022-10-31T00:41:07;13.30;99.90
17489;DHT22;8861;52.644;4.734;2022-10-31T00:43:35;13.20;99.90
17489;DHT22;8861;52.644;4.734;2022-10-31T00:46:02;13.10;99.90
17489;DHT22;8861;52.644;4.734;2022-10-31T00:48:29;13.10;99.90
17489;DHT22;8861;52.644;4.734;2022-10-31T00:50:56;13.00;99.90
17489;DHT22;8861;52.644;4.734;2022-10-31T00:53:22;12.90;99.90
17489;DHT22;8861;52.644;4.734;2022-10-31T00:55:49;12.80;99.90
17489;DHT22;8861;52.644;4.734;2022-10-31T00:58:16;12.70;99.90
17489;DHT22;8861;52.644;4.734;2022-10-31T01:00:46;12.70;99.90
17489;DHT22;8861;52.644;4.734;2022-10-31T01:03:20;12.60;99.90
17489;DHT22;8861;52.644;4.734;2022-10-31T01:05:55;12.60;99.90
17489;DHT22;8861;52.644;4.734;2022-10-31T01:08:22;12.50;99.90
17489;DHT22;8861;52.644;4.734;2022-10-31T01:11:02;12.50;99.90
17489;DHT22;8861;52.644;4.734;2022-10-31T01:13:29;12.50;99.90
17489;DHT22;8861;52.644;4.734;2022-10-31T01:15:58;12.40;99.90
17489;DHT22;8861;52.644;4.734;2022-10-31T01:18:25;12.30;99.90
17489;DHT22;8861;52.644;4.734;2022-10-31T01:21:00;12.30;99.90
17489;DHT22;8861;52.644;4.734;2022-10-31T01:23:28;12.20;99.90
17489;DHT22;8861;52.644;4.734;2022-10-31T01:26:12;12.20;99.90
17489;DHT22;8861;52.644;4.734;2022-10-31T01:28:44;12.20;99.90
17489;DHT22;8861;52.644;4.734;2022-10-31T01:31:12;12.10;99.90
17489;DHT22;8861;52.644;4.734;2022-10-31T01:33:39;12.10;99.90
17489;DHT22;8861;52.644;4.734;2022-10-31T01:36:14;12.10;99.90
17489;DHT22;8861;52.644;4.734;2022-10-31T01:38:41;12.00;99.90
17489;DHT22;8861;52.644;4.734;2022-10-31T01:41:10;12.00;99.90
17489;DHT22;8861;52.644;4.734;2022-10-31T01:43:47;11.90;99.90
17489;DHT22;8861;52.644;4.734;2022-10-31T01:46:17;11.90;99.90
17489;DHT22;8861;52.644;4.734;2022-10-31T01:48:44;11.90;99.90
17489;DHT22;8861;52.644;4.734;2022-10-31T01:51:12;11.80;99.90
17489;DHT22;8861;52.644;4.734;2022-10-31T01:53:42;11.80;99.90
17489;DHT22;8861;52.644;4.734;2022-10-31T01:56:10;11.80;99.90
17489;DHT22;8861;52.644;4.734;2022-10-31T01:58:39;11.80;99.90
17489;DHT22;8861;52.644;4.734;2022-10-31T02:01:06;11.80;99.90
17489;DHT22;8861;52.644;4.734;2022-10-31T02:03:34;11.80;99.90
17489;DHT22;8861;52.644;4.734;2022-10-31T02:06:03;11.80;99.90
17489;DHT22;8861;52.644;4.734;2022-10-31T02:08:34;11.80;99.90
17489;DHT22;8861;52.644;4.734;2022-10-31T02:11:01;11.80;99.90
17489;DHT22;8861;52.644;4.734;2022-10-31T02:13:28;11.80;99.90
17489;DHT22;8861;52.644;4.734;2022-10-31T02:15:57;11.80;99.90
17489;DHT22;8861;52.644;4.734;2022-10-31T02:18:27;11.80;99.90
17489;DHT22;8861;52.644;4.734;2022-10-31T02:21:05;11.80;99.90
17489;DHT22;8861;52.644;4.734;2022-10-31T02:23:53;11.70;99.90
17489;DHT22;8861;52.644;4.734;2022-10-31T02:33:02;11.70;99.90
17489;DHT22;8861;52.644;4.734;2022-10-31T02:35:45;11.70;99.90
17489;DHT22;8861;52.644;4.734;2022-10-31T02:38:23;11.70;99.90
17489;DHT22;8861;52.644;4.734;2022-10-31T02:40:56;11.60;99.90
17489;DHT22;8861;52.644;4.734;2022-10-31T02:43:30;11.60;99.90
17489;DHT22;8861;52.644;4.734;2022-10-31T02:46:04;11.60;99.90
17489;DHT22;8861;52.644;4.734;2022-10-31T02:48:38;11.70;99.90
17489;DHT22;8861;52.644;4.734;2022-10-31T02:51:07;11.60;99.90
17489;DHT22;8861;52.644;4.734;2022-10-31T02:53:35;11.60;99.90
17489;DHT22;8861;52.644;4.734;2022-10-31T02:56:05;11.60;99.90
17489;DHT22;8861;52.644;4.734;2022-10-31T02:58:35;11.60;99.90
17489;DHT22;8861;52.644;4.734;2022-10-31T03:04:22;11.60;99.90
17489;DHT22;8861;52.644;4.734;2022-10-31T03:07:00;11.60;99.90
17489;DHT22;8861;52.644;4.734;2022-10-31T03:09:34;11.60;99.90
17489;DHT22;8861;52.644;4.734;2022-10-31T03:12:07;11.60;99.90
17489;DHT22;8861;52.644;4.734;2022-10-31T03:14:40;11.50;99.90
17489;DHT22;8861;52.644;4.734;2022-10-31T03:17:11;11.50;99.90
17489;DHT22;8861;52.644;4.734;2022-10-31T03:19:43;11.50;99.90
17489;DHT22;8861;52.644;4.734;2022-10-31T03:22:17;11.50;99.90
17489;DHT22;8861;52.644;4.734;2022-10-31T03:24:47;11.50;99.90
17489;DHT22;8861;52.644;4.734;2022-10-31T03:27:16;11.40;99.90
17489;DHT22;8861;52.644;4.734;2022-10-31T03:29:45;11.40;99.90
17489;DHT22;8861;52.644;4.734;2022-10-31T03:32:18;11.40;99.90
17489;DHT22;8861;52.644;4.734;2022-10-31T03:34:49;11.40;99.90
17489;DHT22;8861;52.644;4.734;2022-10-31T03:37:19;11.40;99.90
17489;DHT22;8861;52.644;4.734;2022-10-31T03:39:49;11.40;99.90
17489;DHT22;8861;52.644;4.734;2022-10-31T03:42:18;11.40;99.90
17489;DHT22;8861;52.644;4.734;2022-10-31T03:44:49;11.40;99.90
17489;DHT22;8861;52.644;4.734;2022-10-31T03:47:17;11.40;99.90
17489;DHT22;8861;52.644;4.734;2022-10-31T03:49:44;11.40;99.90
17489;DHT22;8861;52.644;4.734;2022-10-31T03:52:19;11.40;99.90
17489;DHT22;8861;52.644;4.734;2022-10-31T03:54:53;11.40;99.90
17489;DHT22;8861;52.644;4.734;2022-10-31T03:57:24;11.40;99.90
17489;DHT22;8861;52.644;4.734;2022-10-31T03:59:55;11.30;99.90
17489;DHT22;8861;52.644;4.734;2022-10-31T04:02:33;11.30;99.90
17489;DHT22;8861;52.644;4.734;2022-10-31T04:05:02;11.30;99.90
17489;DHT22;8861;52.644;4.734;2022-10-31T04:07:34;11.30;99.90
17489;DHT22;8861;52.644;4.734;2022-10-31T04:10:06;11.20;99.90
17489;DHT22;8861;52.644;4.734;2022-10-31T04:12:35;11.20;99.90
17489;DHT22;8861;52.644;4.734;2022-10-31T04:15:03;11.20;99.90
17489;DHT22;8861;52.644;4.734;2022-10-31T04:17:34;11.10;99.90
17489;DHT22;8861;52.644;4.734;2022-10-31T04:20:03;11.10;99.90
17489;DHT22;8861;52.644;4.734;2022-10-31T04:22:31;11.10;99.90
17489;DHT22;8861;52.644;4.734;2022-10-31T04:24:58;11.10;99.90
17489;DHT22;8861;52.644;4.734;2022-10-31T04:27:25;11.10;99.90
17489;DHT22;8861;52.644;4.734;2022-10-31T04:29:52;11.10;99.90
17489;DHT22;8861;52.644;4.734;2022-10-31T04:32:19;11.10;99.90
17489;DHT22;8861;52.644;4.734;2022-10-31T04:34:45;11.10;99.90
17489;DHT22;8861;52.644;4.734;2022-10-31T04:37:12;11.00;99.90
17489;DHT22;8861;52.644;4.734;2022-10-31T04:39:40;11.00;99.90
17489;DHT22;8861;52.644;4.734;2022-10-31T04:42:07;11.00;99.90
17489;DHT22;8861;52.644;4.734;2022-10-31T04:44:34;10.90;99.90
17489;DHT22;8861;52.644;4.734;2022-10-31T04:47:01;11.00;99.90
17489;DHT22;8861;52.644;4.734;2022-10-31T04:49:28;10.90;99.90
17489;DHT22;8861;52.644;4.734;2022-10-31T04:51:54;10.90;99.90
17489;DHT22;8861;52.644;4.734;2022-10-31T04:54:21;10.90;99.90
17489;DHT22;8861;52.644;4.734;2022-10-31T04:56:49;10.90;99.90
17489;DHT22;8861;52.644;4.734;2022-10-31T04:59:16;10.90;99.90
17489;DHT22;8861;52.644;4.734;2022-10-31T05:01:43;10.90;99.90
17489;DHT22;8861;52.644;4.734;2022-10-31T05:04:10;10.90;99.90
17489;DHT22;8861;52.644;4.734;2022-10-31T05:06:36;10.90;99.90
17489;DHT22;8861;52.644;4.734;2022-10-31T05:09:03;10.90;99.90
17489;DHT22;8861;52.644;4.734;2022-10-31T05:11:30;10.90;99.90
17489;DHT22;8861;52.644;4.734;2022-10-31T05:13:58;10.90;99.90
17489;DHT22;8861;52.644;4.734;2022-10-31T05:16:25;10.90;99.90
17489;DHT22;8861;52.644;4.734;2022-10-31T05:18:52;10.90;99.90
17489;DHT22;8861;52.644;4.734;2022-10-31T05:21:19;10.90;99.90
17489;DHT22;8861;52.644;4.734;2022-10-31T05:23:45;10.90;99.90
17489;DHT22;8861;52.644;4.734;2022-10-31T05:26:12;11.00;99.90
17489;DHT22;8861;52.644;4.734;2022-10-31T05:28:39;11.00;99.90
17489;DHT22;8861;52.644;4.734;2022-10-31T05:31:07;10.90;99.90
17489;DHT22;8861;52.644;4.734;2022-10-31T05:33:34;10.90;99.90
17489;DHT22;8861;52.644;4.734;2022-10-31T05:36:01;10.90;99.90
17489;DHT22;8861;52.644;4.734;2022-10-31T05:38:27;11.00;99.90
17489;DHT22;8861;52.644;4.734;2022-10-31T05:40:54;10.90;99.90
17489;DHT22;8861;52.644;4.734;2022-10-31T05:43:25;10.90;99.90
17489;DHT22;8861;52.644;4.734;2022-10-31T05:45:52;10.90;99.90
17489;DHT22;8861;52.644;4.734;2022-10-31T05:48:20;10.90;99.90
17489;DHT22;8861;52.644;4.734;2022-10-31T05:50:48;10.90;99.90
17489;DHT22;8861;52.644;4.734;2022-10-31T05:53:15;10.90;99.90
17489;DHT22;8861;52.644;4.734;2022-10-31T05:55:43;10.80;99.90
17489;DHT22;8861;52.644;4.734;2022-10-31T05:58:10;10.80;99.90
17489;DHT22;8861;52.644;4.734;2022-10-31T06:00:37;10.80;99.90
17489;DHT22;8861;52.644;4.734;2022-10-31T06:03:06;10.70;99.90
17489;DHT22;8861;52.644;4.734;2022-10-31T06:05:35;10.70;99.90
17489;DHT22;8861;52.644;4.734;2022-10-31T06:08:02;10.70;99.90
17489;DHT22;8861;52.644;4.734;2022-10-31T06:10:28;10.70;99.90
17489;DHT22;8861;52.644;4.734;2022-10-31T06:12:55;10.70;99.90
17489;DHT22;8861;52.644;4.734;2022-10-31T06:15:22;10.70;99.90
17489;DHT22;8861;52.644;4.734;2022-10-31T06:17:57;10.60;99.90
17489;DHT22;8861;52.644;4.734;2022-10-31T06:20:24;10.60;99.90
17489;DHT22;8861;52.644;4.734;2022-10-31T06:22:52;10.60;99.90
17489;DHT22;8861;52.644;4.734;2022-10-31T06:25:19;10.60;99.90
17489;DHT22;8861;52.644;4.734;2022-10-31T06:27:46;10.50;99.90
17489;DHT22;8861;52.644;4.734;2022-10-31T06:30:14;10.50;99.90
17489;DHT22;8861;52.644;4.734;2022-10-31T06:32:40;10.50;99.90
17489;DHT22;8861;52.644;4.734;2022-10-31T06:35:07;10.50;99.90
17489;DHT22;8861;52.644;4.734;2022-10-31T06:37:34;10.50;99.90
17489;DHT22;8861;52.644;4.734;2022-10-31T06:40:03;10.50;99.90
17489;DHT22;8861;52.644;4.734;2022-10-31T06:42:30;10.50;99.90
17489;DHT22;8861;52.644;4.734;2022-10-31T06:44:57;10.50;99.90
17489;DHT22;8861;52.644;4.734;2022-10-31T06:47:23;10.50;99.90
17489;DHT22;8861;52.644;4.734;2022-10-31T06:49:50;10.50;99.90
17489;DHT22;8861;52.644;4.734;2022-10-31T06:52:17;10.50;99.90
17489;DHT22;8861;52.644;4.734;2022-10-31T06:54:44;10.60;99.90
17489;DHT22;8861;52.644;4.734;2022-10-31T06:57:12;10.60;99.90
17489;DHT22;8861;52.644;4.734;2022-10-31T06:59:39;10.60;99.90
17489;DHT22;8861;52.644;4.734;2022-10-31T07:02:08;10.60;99.90
17489;DHT22;8861;52.644;4.734;2022-10-31T07:04:35;10.60;99.90
17489;DHT22;8861;52.644;4.734;2022-10-31T07:07:02;10.60;99.90
17489;DHT22;8861;52.644;4.734;2022-10-31T07:09:29;10.60;99.90
17489;DHT22;8861;52.644;4.734;2022-10-31T07:11:56;10.70;99.90
17489;DHT22;8861;52.644;4.734;2022-10-31T07:14:24;10.80;99.90
17489;DHT22;8861;52.644;4.734;2022-10-31T07:16:51;10.80;99.90
17489;DHT22;8861;52.644;4.734;2022-10-31T07:19:18;10.90;99.90
17489;DHT22;8861;52.644;4.734;2022-10-31T07:21:45;10.90;99.90
17489;DHT22;8861;52.644;4.734;2022-10-31T07:24:12;11.00;99.90
17489;DHT22;8861;52.644;4.734;2022-10-31T07:26:39;11.00;99.90
17489;DHT22;8861;52.644;4.734;2022-10-31T07:29:07;11.10;99.90
17489;DHT22;8861;52.644;4.734;2022-10-31T07:31:36;11.10;99.90
17489;DHT22;8861;52.644;4.734;2022-10-31T07:34:03;11.20;99.90
17489;DHT22;8861;52.644;4.734;2022-10-31T07:36:29;11.30;99.90
17489;DHT22;8861;52.644;4.734;2022-10-31T07:38:56;11.30;99.90
17489;DHT22;8861;52.644;4.734;2022-10-31T07:41:24;11.40;99.90
17489;DHT22;8861;52.644;4.734;2022-10-31T07:43:51;11.50;99.90
17489;DHT22;8861;52.644;4.734;2022-10-31T07:46:19;11.60;99.90
17489;DHT22;8861;52.644;4.734;2022-10-31T07:48:47;11.60;99.90
17489;DHT22;8861;52.644;4.734;2022-10-31T07:51:13;11.70;99.90
17489;DHT22;8861;52.644;4.734;2022-10-31T07:53:40;11.90;99.90
17489;DHT22;8861;52.644;4.734;2022-10-31T07:56:07;11.90;99.90
17489;DHT22;8861;52.644;4.734;2022-10-31T07:58:34;12.10;99.90
17489;DHT22;8861;52.644;4.734;2022-10-31T08:01:00;12.20;99.90
17489;DHT22;8861;52.644;4.734;2022-10-31T08:03:27;12.30;99.90
17489;DHT22;8861;52.644;4.734;2022-10-31T08:05:56;12.40;99.90
17489;DHT22;8861;52.644;4.734;2022-10-31T08:08:23;12.50;99.90
17489;DHT22;8861;52.644;4.734;2022-10-31T08:10:53;12.60;99.90
17489;DHT22;8861;52.644;4.734;2022-10-31T08:13:20;12.80;99.90
17489;DHT22;8861;52.644;4.734;2022-10-31T08:15:47;12.90;99.90
17489;DHT22;8861;52.644;4.734;2022-10-31T08:18:16;13.00;99.90
17489;DHT22;8861;52.644;4.734;2022-10-31T08:20:43;13.10;99.90
17489;DHT22;8861;52.644;4.734;2022-10-31T08:23:12;13.20;99.90
17489;DHT22;8861;52.644;4.734;2022-10-31T08:25:39;13.30;99.90
17489;DHT22;8861;52.644;4.734;2022-10-31T08:28:08;13.40;99.90
17489;DHT22;8861;52.644;4.734;2022-10-31T08:30:36;13.50;99.90
17489;DHT22;8861;52.644;4.734;2022-10-31T08:33:04;13.60;99.90
17489;DHT22;8861;52.644;4.734;2022-10-31T08:35:32;13.60;99.90
17489;DHT22;8861;52.644;4.734;2022-10-31T08:38:00;13.70;99.90
17489;DHT22;8861;52.644;4.734;2022-10-31T08:40:29;13.80;99.90
17489;DHT22;8861;52.644;4.734;2022-10-31T08:42:58;13.80;99.90
17489;DHT22;8861;52.644;4.734;2022-10-31T08:45:25;13.90;99.90
17489;DHT22;8861;52.644;4.734;2022-10-31T08:47:52;14.00;99.90
17489;DHT22;8861;52.644;4.734;2022-10-31T08:50:18;14.00;99.90
17489;DHT22;8861;52.644;4.734;2022-10-31T08:52:45;14.00;99.90
17489;DHT22;8861;52.644;4.734;2022-10-31T08:55:12;14.10;99.90
17489;DHT22;8861;52.644;4.734;2022-10-31T08:57:40;14.10;99.90
17489;DHT22;8861;52.644;4.734;2022-10-31T09:00:08;14.00;99.90
17489;DHT22;8861;52.644;4.734;2022-10-31T09:02:35;14.00;99.90
17489;DHT22;8861;52.644;4.734;2022-10-31T09:05:04;13.90;99.90
17489;DHT22;8861;52.644;4.734;2022-10-31T09:07:31;13.90;99.90
17489;DHT22;8861;52.644;4.734;2022-10-31T09:09:58;13.90;99.90
17489;DHT22;8861;52.644;4.734;2022-10-31T09:12:24;13.90;99.90
17489;DHT22;8861;52.644;4.734;2022-10-31T09:14:52;13.90;99.90
17489;DHT22;8861;52.644;4.734;2022-10-31T09:17:19;13.90;99.90
17489;DHT22;8861;52.644;4.734;2022-10-31T09:19:46;13.90;99.90
17489;DHT22;8861;52.644;4.734;2022-10-31T09:22:14;14.00;99.90
17489;DHT22;8861;52.644;4.734;2022-10-31T09:24:40;14.10;99.90
17489;DHT22;8861;52.644;4.734;2022-10-31T09:27:07;14.20;99.90
17489;DHT22;8861;52.644;4.734;2022-10-31T09:29:34;14.20;99.90
17489;DHT22;8861;52.644;4.734;2022-10-31T09:32:02;14.30;99.90
17489;DHT22;8861;52.644;4.734;2022-10-31T09:34:29;14.30;99.90
17489;DHT22;8861;52.644;4.734;2022-10-31T09:36:56;14.30;99.90
17489;DHT22;8861;52.644;4.734;2022-10-31T09:39:23;14.40;99.90
17489;DHT22;8861;52.644;4.734;2022-10-31T09:42:09;14.50;99.90
17489;DHT22;8861;52.644;4.734;2022-10-31T09:44:49;14.50;99.90
17489;DHT22;8861;52.644;4.734;2022-10-31T09:47:26;14.50;99.90
17489;DHT22;8861;52.644;4.734;2022-10-31T09:50:09;14.50;99.90
17489;DHT22;8861;52.644;4.734;2022-10-31T09:52:39;14.60;99.90
17489;DHT22;8861;52.644;4.734;2022-10-31T09:55:14;14.60;99.90
17489;DHT22;8861;52.644;4.734;2022-10-31T09:57:41;14.60;99.90
17489;DHT22;8861;52.644;4.734;2022-10-31T10:00:15;14.50;99.90
17489;DHT22;8861;52.644;4.734;2022-10-31T10:02:46;14.50;99.90
17489;DHT22;8861;52.644;4.734;2022-10-31T10:05:18;14.50;99.90
17489;DHT22;8861;52.644;4.734;2022-10-31T10:07:52;14.50;99.90
17489;DHT22;8861;52.644;4.734;2022-10-31T10:10:25;14.50;99.90
17489;DHT22;8861;52.644;4.734;2022-10-31T10:13:11;14.40;99.90
17489;DHT22;8861;52.644;4.734;2022-10-31T10:15:51;14.40;99.90
17489;DHT22;8861;52.644;4.734;2022-10-31T10:18:30;14.40;99.90
17489;DHT22;8861;52.644;4.734;2022-10-31T10:21:06;14.40;99.90
17489;DHT22;8861;52.644;4.734;2022-10-31T10:23:48;14.40;99.90
17489;DHT22;8861;52.644;4.734;2022-10-31T10:26:18;14.40;99.90
17489;DHT22;8861;52.644;4.734;2022-10-31T10:28:48;14.40;99.90
17489;DHT22;8861;52.644;4.734;2022-10-31T10:31:20;14.50;99.90
17489;DHT22;8861;52.644;4.734;2022-10-31T10:34:00;14.60;99.90
17489;DHT22;8861;52.644;4.734;2022-10-31T10:36:32;14.50;99.90
17489;DHT22;8861;52.644;4.734;2022-10-31T10:39:04;14.60;99.90
17489;DHT22;8861;52.644;4.734;2022-10-31T10:41:32;14.70;99.90
17489;DHT22;8861;52.644;4.734;2022-10-31T10:43:59;14.80;99.90
17489;DHT22;8861;52.644;4.734;2022-10-31T10:46:32;14.80;99.90
17489;DHT22;8861;52.644;4.734;2022-10-31T10:49:23;15.00;99.90
17489;DHT22;8861;52.644;4.734;2022-10-31T10:51:57;15.10;99.90
17489;DHT22;8861;52.644;4.734;2022-10-31T10:54:47;15.20;99.90
17489;DHT22;8861;52.644;4.734;2022-10-31T10:57:22;15.20;99.90
17489;DHT22;8861;52.644;4.734;2022-10-31T10:59:53;15.30;99.90
17489;DHT22;8861;52.644;4.734;2022-10-31T11:02:23;15.30;99.90
17489;DHT22;8861;52.644;4.734;2022-10-31T11:04:53;15.40;99.90
17489;DHT22;8861;52.644;4.734;2022-10-31T11:07:21;15.30;99.90
17489;DHT22;8861;52.644;4.734;2022-10-31T11:09:48;15.30;99.90
17489;DHT22;8861;52.644;4.734;2022-10-31T11:12:20;15.30;99.90
17489;DHT22;8861;52.644;4.734;2022-10-31T11:14:50;15.30;99.90
17489;DHT22;8861;52.644;4.734;2022-10-31T11:17:25;15.20;99.90
17489;DHT22;8861;52.644;4.734;2022-10-31T11:20:29;15.20;99.90
17489;DHT22;8861;52.644;4.734;2022-10-31T11:23:15;15.20;99.90
17489;DHT22;8861;52.644;4.734;2022-10-31T11:25:49;15.10;99.90
17489;DHT22;8861;52.644;4.734;2022-10-31T11:28:16;15.00;99.90
17489;DHT22;8861;52.644;4.734;2022-10-31T11:30:45;15.00;99.90
17489;DHT22;8861;52.644;4.734;2022-10-31T11:33:19;15.00;99.90
17489;DHT22;8861;52.644;4.734;2022-10-31T11:35:48;15.00;99.90
17489;DHT22;8861;52.644;4.734;2022-10-31T11:38:18;15.10;99.90
17489;DHT22;8861;52.644;4.734;2022-10-31T11:40:56;15.20;99.90
17489;DHT22;8861;52.644;4.734;2022-10-31T11:43:24;15.40;99.90
17489;DHT22;8861;52.644;4.734;2022-10-31T11:45:51;15.60;99.90
17489;DHT22;8861;52.644;4.734;2022-10-31T11:48:22;15.90;99.90
17489;DHT22;8861;52.644;4.734;2022-10-31T11:50:54;16.30;99.90
17489;DHT22;8861;52.644;4.734;2022-10-31T11:53:25;16.60;99.90
17489;DHT22;8861;52.644;4.734;2022-10-31T11:56:03;16.80;99.90
17489;DHT22;8861;52.644;4.734;2022-10-31T11:58:31;16.90;99.90
17489;DHT22;8861;52.644;4.734;2022-10-31T12:00:58;17.10;99.90
17489;DHT22;8861;52.644;4.734;2022-10-31T12:03:46;17.20;99.90
17489;DHT22;8861;52.644;4.734;2022-10-31T12:06:22;17.30;99.90
17489;DHT22;8861;52.644;4.734;2022-10-31T12:08:50;17.30;99.90
17489;DHT22;8861;52.644;4.734;2022-10-31T12:11:33;17.30;99.90
17489;DHT22;8861;52.644;4.734;2022-10-31T12:14:12;17.30;99.90
17489;DHT22;8861;52.644;4.734;2022-10-31T12:16:45;17.30;99.90
17489;DHT22;8861;52.644;4.734;2022-10-31T12:19:20;17.30;99.90
17489;DHT22;8861;52.644;4.734;2022-10-31T12:22:00;17.30;99.90
17489;DHT22;8861;52.644;4.734;2022-10-31T12:24:47;17.30;99.90
17489;DHT22;8861;52.644;4.734;2022-10-31T12:27:28;17.30;99.90
17489;DHT22;8861;52.644;4.734;2022-10-31T12:30:15;17.20;99.90
17489;DHT22;8861;52.644;4.734;2022-10-31T12:33:02;17.10;99.90
17489;DHT22;8861;52.644;4.734;2022-10-31T12:35:40;17.00;99.90
17489;DHT22;8861;52.644;4.734;2022-10-31T12:38:22;16.90;99.90
17489;DHT22;8861;52.644;4.734;2022-10-31T12:41:00;16.90;99.90
17489;DHT22;8861;52.644;4.734;2022-10-31T12:43:36;16.90;99.90
17489;DHT22;8861;52.644;4.734;2022-10-31T12:46:12;17.00;99.90
17489;DHT22;8861;52.644;4.734;2022-10-31T12:51:40;17.00;99.90
17489;DHT22;8861;52.644;4.734;2022-10-31T12:54:22;17.00;99.90
17489;DHT22;8861;52.644;4.734;2022-10-31T12:56:58;16.90;99.90
17489;DHT22;8861;52.644;4.734;2022-10-31T12:59:32;16.90;99.90
17489;DHT22;8861;52.644;4.734;2022-10-31T13:02:03;16.90;99.90
17489;DHT22;8861;52.644;4.734;2022-10-31T13:04:42;16.90;99.90
17489;DHT22;8861;52.644;4.734;2022-10-31T13:07:13;16.90;99.90
17489;DHT22;8861;52.644;4.734;2022-10-31T13:09:49;16.90;99.90
17489;DHT22;8861;52.644;4.734;2022-10-31T13:12:20;16.90;99.90
17489;DHT22;8861;52.644;4.734;2022-10-31T13:14:50;16.90;99.90
17489;DHT22;8861;52.644;4.734;2022-10-31T13:17:25;16.90;99.90
17489;DHT22;8861;52.644;4.734;2022-10-31T13:19:55;16.90;99.90
17489;DHT22;8861;52.644;4.734;2022-10-31T13:22:29;16.90;99.90
17489;DHT22;8861;52.644;4.734;2022-10-31T13:25:03;16.90;99.90
17489;DHT22;8861;52.644;4.734;2022-10-31T13:27:44;16.90;99.90
17489;DHT22;8861;52.644;4.734;2022-10-31T13:30:14;17.00;99.90
17489;DHT22;8861;52.644;4.734;2022-10-31T13:32:44;17.00;99.90
17489;DHT22;8861;52.644;4.734;2022-10-31T13:35:19;17.00;99.90
17489;DHT22;8861;52.644;4.734;2022-10-31T13:37:51;16.90;99.90
17489;DHT22;8861;52.644;4.734;2022-10-31T13:40:30;16.80;99.90
17489;DHT22;8861;52.644;4.734;2022-10-31T13:43:04;16.70;99.90
17489;DHT22;8861;52.644;4.734;2022-10-31T13:45:33;16.70;99.90
17489;DHT22;8861;52.644;4.734;2022-10-31T13:48:16;16.80;99.90
17489;DHT22;8861;52.644;4.734;2022-10-31T13:50:56;16.80;99.90
17489;DHT22;8861;52.644;4.734;2022-10-31T13:53:36;17.00;99.90
17489;DHT22;8861;52.644;4.734;2022-10-31T13:56:20;17.00;99.90
17489;DHT22;8861;52.644;4.734;2022-10-31T13:59:04;17.00;99.90
17489;DHT22;8861;52.644;4.734;2022-10-31T14:01:33;17.00;99.90
17489;DHT22;8861;52.644;4.734;2022-10-31T14:04:04;17.00;99.90
17489;DHT22;8861;52.644;4.734;2022-10-31T14:06:38;17.00;99.90
17489;DHT22;8861;52.644;4.734;2022-10-31T14:09:18;16.90;99.90
17489;DHT22;8861;52.644;4.734;2022-10-31T14:11:47;16.90;99.90
17489;DHT22;8861;52.644;4.734;2022-10-31T14:14:15;16.90;99.90
17489;DHT22;8861;52.644;4.734;2022-10-31T14:16:44;16.90;99.90
17489;DHT22;8861;52.644;4.734;2022-10-31T14:19:16;16.90;99.90
17489;DHT22;8861;52.644;4.734;2022-10-31T14:21:44;16.80;99.90
17489;DHT22;8861;52.644;4.734;2022-10-31T14:24:29;16.80;99.90
17489;DHT22;8861;52.644;4.734;2022-10-31T14:26:59;16.80;99.90
17489;DHT22;8861;52.644;4.734;2022-10-31T14:29:27;16.80;99.90
17489;DHT22;8861;52.644;4.734;2022-10-31T14:32:04;16.80;99.90
17489;DHT22;8861;52.644;4.734;2022-10-31T14:34:39;16.90;99.90
17489;DHT22;8861;52.644;4.734;2022-10-31T14:37:32;17.00;99.90
17489;DHT22;8861;52.644;4.734;2022-10-31T14:40:14;17.00;99.90
17489;DHT22;8861;52.644;4.734;2022-10-31T14:45:46;17.00;99.90
17489;DHT22;8861;52.644;4.734;2022-10-31T14:48:33;17.00;99.90
17489;DHT22;8861;52.644;4.734;2022-10-31T14:51:09;17.00;99.90
17489;DHT22;8861;52.644;4.734;2022-10-31T14:53:42;16.90;99.90
17489;DHT22;8861;52.644;4.734;2022-10-31T14:56:11;16.80;99.90
17489;DHT22;8861;52.644;4.734;2022-10-31T14:58:42;16.80;99.90
17489;DHT22;8861;52.644;4.734;2022-10-31T15:01:19;16.70;99.90
17489;DHT22;8861;52.644;4.734;2022-10-31T15:03:47;16.60;99.90
17489;DHT22;8861;52.644;4.734;2022-10-31T15:06:17;16.40;99.90
17489;DHT22;8861;52.644;4.734;2022-10-31T15:08:46;16.40;99.90
17489;DHT22;8861;52.644;4.734;2022-10-31T15:11:15;16.30;99.90
17489;DHT22;8861;52.644;4.734;2022-10-31T15:13:46;16.20;99.90
17489;DHT22;8861;52.644;4.734;2022-10-31T15:16:16;16.10;99.90
17489;DHT22;8861;52.644;4.734;2022-10-31T15:18:49;16.10;99.90
17489;DHT22;8861;52.644;4.734;2022-10-31T15:21:17;16.00;99.90
17489;DHT22;8861;52.644;4.734;2022-10-31T15:23:44;15.90;99.90
17489;DHT22;8861;52.644;4.734;2022-10-31T15:26:17;15.90;99.90
17489;DHT22;8861;52.644;4.734;2022-10-31T15:28:45;15.90;99.90
17489;DHT22;8861;52.644;4.734;2022-10-31T15:31:14;15.80;99.90
17489;DHT22;8861;52.644;4.734;2022-10-31T15:33:44;15.80;99.90
17489;DHT22;8861;52.644;4.734;2022-10-31T15:36:19;15.80;99.90
17489;DHT22;8861;52.644;4.734;2022-10-31T15:38:46;15.80;99.90
17489;DHT22;8861;52.644;4.734;2022-10-31T15:41:23;15.80;99.90
17489;DHT22;8861;52.644;4.734;2022-10-31T15:43:56;15.70;99.90
17489;DHT22;8861;52.644;4.734;2022-10-31T15:46:26;15.70;99.90
17489;DHT22;8861;52.644;4.734;2022-10-31T15:48:53;15.70;99.90
17489;DHT22;8861;52.644;4.734;2022-10-31T15:51:26;15.60;99.90
17489;DHT22;8861;52.644;4.734;2022-10-31T15:53:55;15.60;99.90
17489;DHT22;8861;52.644;4.734;2022-10-31T15:56:23;15.60;99.90
17489;DHT22;8861;52.644;4.734;2022-10-31T15:58:54;15.60;99.90
17489;DHT22;8861;52.644;4.734;2022-10-31T16:01:23;15.50;99.90
17489;DHT22;8861;52.644;4.734;2022-10-31T16:04:02;15.50;99.90
17489;DHT22;8861;52.644;4.734;2022-10-31T16:06:30;15.50;99.90
17489;DHT22;8861;52.644;4.734;2022-10-31T16:08:57;15.40;99.90
17489;DHT22;8861;52.644;4.734;2022-10-31T16:11:27;15.40;99.90
17489;DHT22;8861;52.644;4.734;2022-10-31T16:14:00;15.40;99.90
17489;DHT22;8861;52.644;4.734;2022-10-31T16:16:29;15.30;99.90
17489;DHT22;8861;52.644;4.734;2022-10-31T16:18:57;15.30;99.90
17489;DHT22;8861;52.644;4.734;2022-10-31T16:21:27;15.30;99.90
17489;DHT22;8861;52.644;4.734;2022-10-31T16:23:59;15.30;99.90